sensor_id;sensor_type;location;lat;lon;timestamp;pressure;altitude;pressure_sealevel;temperature;humidity
20656;BME280;10487;53.320;8.672;2022-07-15T00:00:19;101756.09;;;19.46;42.83
20656;BME280;10487;53.320;8.672;2022-07-15T00:03:06;101755.34;;;19.44;43.10
20656;BME280;10487;53.320;8.672;2022-07-15T00:05:53;101757.38;;;19.41;43.09
20656;BME280;10487;53.320;8.672;2022-07-15T00:08:40;101754.94;;;19.37;42.99
20656;BME280;10487;53.320;8.672;2022-07-15T00:11:27;101757.69;;;19.36;42.93
20656;BME280;10487;53.320;8.672;2022-07-15T00:14:14;101752.47;;;19.34;43.08
20656;BME280;10487;53.320;8.672;2022-07-15T00:17:01;101746.22;;;19.34;43.03
20656;BME280;10487;53.320;8.672;2022-07-15T00:19:48;101740.97;;;19.32;43.09
20656;BME280;10487;53.320;8.672;2022-07-15T00:22:36;101742.06;;;19.30;42.96
20656;BME280;10487;53.320;8.672;2022-07-15T00:25:23;101744.75;;;19.30;43.15
20656;BME280;10487;53.320;8.672;2022-07-15T00:28:10;101744.84;;;19.28;43.06
20656;BME280;10487;53.320;8.672;2022-07-15T00:30:57;101735.19;;;19.26;43.33
20656;BME280;10487;53.320;8.672;2022-07-15T00:33:44;101733.50;;;19.25;43.11
20656;BME280;10487;53.320;8.672;2022-07-15T00:36:31;101732.84;;;19.21;43.24
20656;BME280;10487;53.320;8.672;2022-07-15T00:39:18;101734.78;;;19.19;43.38
20656;BME280;10487;53.320;8.672;2022-07-15T00:42:05;101733.06;;;19.18;43.40
20656;BME280;10487;53.320;8.672;2022-07-15T00:44:52;101724.28;;;19.16;43.08
20656;BME280;10487;53.320;8.672;2022-07-15T00:47:48;101739.41;;;19.17;43.41
20656;BME280;10487;53.320;8.672;2022-07-15T00:50:35;101731.59;;;19.14;43.36
20656;BME280;10487;53.320;8.672;2022-07-15T00:53:22;101732.66;;;19.12;43.37
20656;BME280;10487;53.320;8.672;2022-07-15T00:56:10;101726.44;;;19.11;43.31
20656;BME280;10487;53.320;8.672;2022-07-15T00:58:59;101717.44;;;19.12;43.39
20656;BME280;10487;53.320;8.672;2022-07-15T01:01:48;101721.06;;;19.11;43.10
20656;BME280;10487;53.320;8.672;2022-07-15T01:04:38;101726.31;;;19.13;43.11
20656;BME280;10487;53.320;8.672;2022-07-15T01:07:26;101726.31;;;19.13;43.44
20656;BME280;10487;53.320;8.672;2022-07-15T01:10:13;101729.97;;;19.12;43.53
20656;BME280;10487;53.320;8.672;2022-07-15T01:13:00;101719.34;;;19.10;43.28
20656;BME280;10487;53.320;8.672;2022-07-15T01:15:49;101726.66;;;19.08;43.36
20656;BME280;10487;53.320;8.672;2022-07-15T01:18:36;101725.78;;;19.08;43.49
20656;BME280;10487;53.320;8.672;2022-07-15T01:21:23;101730.31;;;19.07;43.37
20656;BME280;10487;53.320;8.672;2022-07-15T01:24:11;101729.56;;;19.05;43.49
20656;BME280;10487;53.320;8.672;2022-07-15T01:26:59;101739.53;;;19.03;43.37
20656;BME280;10487;53.320;8.672;2022-07-15T01:29:47;101737.84;;;19.02;43.24
20656;BME280;10487;53.320;8.672;2022-07-15T01:32:34;101739.78;;;19.00;43.69
20656;BME280;10487;53.320;8.672;2022-07-15T01:35:21;101733.56;;;19.00;43.59
20656;BME280;10487;53.320;8.672;2022-07-15T01:38:09;101737.13;;;19.00;43.67
20656;BME280;10487;53.320;8.672;2022-07-15T01:40:56;101738.06;;;18.99;43.31
20656;BME280;10487;53.320;8.672;2022-07-15T01:43:43;101739.03;;;18.98;43.29
20656;BME280;10487;53.320;8.672;2022-07-15T01:46:30;101739.16;;;18.97;43.53
20656;BME280;10487;53.320;8.672;2022-07-15T01:49:17;101741.94;;;18.95;43.70
20656;BME280;10487;53.320;8.672;2022-07-15T01:52:16;101747.31;;;18.95;43.60
20656;BME280;10487;53.320;8.672;2022-07-15T01:55:05;101749.22;;;18.93;43.75
20656;BME280;10487;53.320;8.672;2022-07-15T01:57:53;101751.91;;;18.93;43.46
20656;BME280;10487;53.320;8.672;2022-07-15T02:00:40;101741.19;;;18.93;43.43
20656;BME280;10487;53.320;8.672;2022-07-15T02:03:27;101747.53;;;18.92;43.48
20656;BME280;10487;53.320;8.672;2022-07-15T02:06:14;101739.56;;;18.91;43.73
20656;BME280;10487;53.320;8.672;2022-07-15T02:09:01;101747.63;;;18.91;43.83
20656;BME280;10487;53.320;8.672;2022-07-15T02:11:48;101750.44;;;18.89;43.66
20656;BME280;10487;53.320;8.672;2022-07-15T02:14:35;101743.25;;;18.90;43.69
20656;BME280;10487;53.320;8.672;2022-07-15T02:17:22;101742.38;;;18.89;43.86
20656;BME280;10487;53.320;8.672;2022-07-15T02:20:09;101743.25;;;18.90;43.78
20656;BME280;10487;53.320;8.672;2022-07-15T02:22:57;101743.25;;;18.90;43.78
20656;BME280;10487;53.320;8.672;2022-07-15T02:25:44;101741.44;;;18.90;43.53
20656;BME280;10487;53.320;8.672;2022-07-15T02:28:31;101736.06;;;18.90;43.66
20656;BME280;10487;53.320;8.672;2022-07-15T02:31:18;101751.91;;;18.93;43.73
20656;BME280;10487;53.320;8.672;2022-07-15T02:34:06;101737.53;;;18.94;43.96
20656;BME280;10487;53.320;8.672;2022-07-15T02:36:53;101741.94;;;18.95;43.62
20656;BME280;10487;53.320;8.672;2022-07-15T02:39:40;101743.66;;;18.96;43.76
20656;BME280;10487;53.320;8.672;2022-07-15T02:42:27;101741.09;;;18.95;43.93
20656;BME280;10487;53.320;8.672;2022-07-15T02:45:14;101744.63;;;18.95;43.94
20656;BME280;10487;53.320;8.672;2022-07-15T02:48:02;101741.94;;;18.95;43.70
20656;BME280;10487;53.320;8.672;2022-07-15T02:50:50;101754.50;;;18.95;43.81
20656;BME280;10487;53.320;8.672;2022-07-15T02:53:37;101741.09;;;18.95;43.83
20656;BME280;10487;53.320;8.672;2022-07-15T02:56:23;101737.41;;;18.96;43.66
20656;BME280;10487;53.320;8.672;2022-07-15T02:59:10;101738.28;;;18.96;43.73
20656;BME280;10487;53.320;8.672;2022-07-15T03:01:57;101739.16;;;18.97;43.86
20656;BME280;10487;53.320;8.672;2022-07-15T03:04:45;101740.97;;;18.96;44.15
20656;BME280;10487;53.320;8.672;2022-07-15T03:07:32;101746.34;;;18.96;43.84
20656;BME280;10487;53.320;8.672;2022-07-15T03:10:19;101751.69;;;18.96;44.04
20656;BME280;10487;53.320;8.672;2022-07-15T03:13:06;101758.06;;;18.95;43.83
20656;BME280;10487;53.320;8.672;2022-07-15T03:15:53;101760.81;;;18.94;44.20
20656;BME280;10487;53.320;8.672;2022-07-15T03:18:40;101759.97;;;18.93;43.82
20656;BME280;10487;53.320;8.672;2022-07-15T03:21:27;101762.66;;;18.93;44.21
20656;BME280;10487;53.320;8.672;2022-07-15T03:24:14;101761.69;;;18.94;43.92
20656;BME280;10487;53.320;8.672;2022-07-15T03:27:02;101763.50;;;18.94;44.06
20656;BME280;10487;53.320;8.672;2022-07-15T03:29:49;101766.19;;;18.94;44.13
20656;BME280;10487;53.320;8.672;2022-07-15T03:32:36;101766.09;;;18.95;43.98
20656;BME280;10487;53.320;8.672;2022-07-15T03:35:24;101766.09;;;18.95;43.89
20656;BME280;10487;53.320;8.672;2022-07-15T03:38:10;101771.56;;;18.94;44.18
20656;BME280;10487;53.320;8.672;2022-07-15T03:40:58;101771.56;;;18.94;44.11
20656;BME280;10487;53.320;8.672;2022-07-15T03:43:46;101775.22;;;18.93;44.13
20656;BME280;10487;53.320;8.672;2022-07-15T03:46:32;101780.69;;;18.91;44.31
20656;BME280;10487;53.320;8.672;2022-07-15T03:49:20;101771.91;;;18.89;43.93
20656;BME280;10487;53.320;8.672;2022-07-15T03:52:07;101781.75;;;18.89;43.99
20656;BME280;10487;53.320;8.672;2022-07-15T03:54:54;101782.75;;;18.88;44.38
20656;BME280;10487;53.320;8.672;2022-07-15T03:57:41;101784.66;;;18.86;44.03
20656;BME280;10487;53.320;8.672;2022-07-15T04:00:28;101782.09;;;18.84;44.17
20656;BME280;10487;53.320;8.672;2022-07-15T04:03:16;101785.50;;;18.86;44.26
20656;BME280;10487;53.320;8.672;2022-07-15T04:06:03;101789.94;;;18.87;44.19
20656;BME280;10487;53.320;8.672;2022-07-15T04:08:51;101789.06;;;18.87;44.30
20656;BME280;10487;53.320;8.672;2022-07-15T04:11:39;101794.31;;;18.88;43.99
20656;BME280;10487;53.320;8.672;2022-07-15T04:14:29;101791.63;;;18.88;44.31
20656;BME280;10487;53.320;8.672;2022-07-15T04:17:16;101789.06;;;18.87;44.09
20656;BME280;10487;53.320;8.672;2022-07-15T04:20:03;101790.66;;;18.89;44.17
20656;BME280;10487;53.320;8.672;2022-07-15T04:22:51;101806.78;;;18.89;44.08
20656;BME280;10487;53.320;8.672;2022-07-15T04:25:38;101805.81;;;18.90;44.33
20656;BME280;10487;53.320;8.672;2022-07-15T04:28:26;101821.78;;;18.92;44.27
20656;BME280;10487;53.320;8.672;2022-07-15T04:31:13;101806.56;;;18.92;44.40
20656;BME280;10487;53.320;8.672;2022-07-15T04:34:01;101801.19;;;18.92;44.32
20656;BME280;10487;53.320;8.672;2022-07-15T04:36:48;101814.50;;;18.94;44.13
20656;BME280;10487;53.320;8.672;2022-07-15T04:39:35;101810.84;;;18.95;44.10
20656;BME280;10487;53.320;8.672;2022-07-15T04:42:23;101809.88;;;18.96;44.39
20656;BME280;10487;53.320;8.672;2022-07-15T04:45:10;101811.59;;;18.97;44.24
20656;BME280;10487;53.320;8.672;2022-07-15T04:47:58;101808.91;;;18.97;44.46
20656;BME280;10487;53.320;8.672;2022-07-15T04:50:45;101816.00;;;18.98;44.51
20656;BME280;10487;53.320;8.672;2022-07-15T04:53:32;101817.63;;;19.00;44.52
20656;BME280;10487;53.320;8.672;2022-07-15T04:56:19;101826.41;;;19.02;44.64
20656;BME280;10487;53.320;8.672;2022-07-15T04:59:06;101821.78;;;19.04;44.41
20656;BME280;10487;53.320;8.672;2022-07-15T05:01:53;101823.47;;;19.05;44.32
20656;BME280;10487;53.320;8.672;2022-07-15T05:04:40;101818.88;;;19.07;44.63
20656;BME280;10487;53.320;8.672;2022-07-15T05:07:27;101818.44;;;19.13;44.69
20656;BME280;10487;53.320;8.672;2022-07-15T05:10:14;101816.25;;;19.44;44.68
20656;BME280;10487;53.320;8.672;2022-07-15T05:13:04;101829.38;;;19.72;44.69
20656;BME280;10487;53.320;8.672;2022-07-15T05:15:51;101826.72;;;19.83;44.79
20656;BME280;10487;53.320;8.672;2022-07-15T05:18:38;101820.91;;;19.89;44.77
20656;BME280;10487;53.320;8.672;2022-07-15T05:21:27;101817.00;;;19.93;44.64
20656;BME280;10487;53.320;8.672;2022-07-15T05:24:14;101819.47;;;19.96;44.65
20656;BME280;10487;53.320;8.672;2022-07-15T05:27:15;101825.47;;;19.99;44.67
20656;BME280;10487;53.320;8.672;2022-07-15T05:30:02;101828.78;;;20.03;44.62
20656;BME280;10487;53.320;8.672;2022-07-15T05:32:49;101816.19;;;20.03;44.61
20656;BME280;10487;53.320;8.672;2022-07-15T05:35:36;101825.97;;;20.04;44.43
20656;BME280;10487;53.320;8.672;2022-07-15T05:38:24;101831.25;;;20.06;44.75
20656;BME280;10487;53.320;8.672;2022-07-15T05:41:11;101826.59;;;20.08;44.72
20656;BME280;10487;53.320;8.672;2022-07-15T05:44:00;101832.72;;;20.10;44.61
20656;BME280;10487;53.320;8.672;2022-07-15T05:46:47;101835.31;;;20.12;44.55
20656;BME280;10487;53.320;8.672;2022-07-15T05:49:34;101834.22;;;20.14;44.71
20656;BME280;10487;53.320;8.672;2022-07-15T05:52:28;101848.25;;;20.18;44.68
20656;BME280;10487;53.320;8.672;2022-07-15T05:55:15;101852.56;;;20.20;44.62
20656;BME280;10487;53.320;8.672;2022-07-15T05:58:06;101848.72;;;20.24;44.70
20656;BME280;10487;53.320;8.672;2022-07-15T06:00:53;101848.44;;;20.27;44.63
20656;BME280;10487;53.320;8.672;2022-07-15T06:03:40;101841.97;;;20.30;44.66
20656;BME280;10487;53.320;8.672;2022-07-15T06:06:27;101853.25;;;20.35;44.71
20656;BME280;10487;53.320;8.672;2022-07-15T06:09:14;101858.28;;;20.39;44.85
20656;BME280;10487;53.320;8.672;2022-07-15T06:12:01;101856.94;;;20.45;44.72
20656;BME280;10487;53.320;8.672;2022-07-15T06:14:48;101859.28;;;20.49;44.70
20656;BME280;10487;53.320;8.672;2022-07-15T06:17:35;101867.03;;;20.54;44.81
20656;BME280;10487;53.320;8.672;2022-07-15T06:20:23;101871.19;;;20.58;44.73
20656;BME280;10487;53.320;8.672;2022-07-15T06:23:10;101871.81;;;20.61;44.76
20656;BME280;10487;53.320;8.672;2022-07-15T06:25:57;101875.97;;;20.65;44.72
20656;BME280;10487;53.320;8.672;2022-07-15T06:28:44;101880.34;;;20.66;44.71
20656;BME280;10487;53.320;8.672;2022-07-15T06:31:35;101881.34;;;20.77;44.93
20656;BME280;10487;53.320;8.672;2022-07-15T06:34:22;101873.56;;;20.96;44.92
20656;BME280;10487;53.320;8.672;2022-07-15T06:37:09;101884.88;;;21.12;44.93
20656;BME280;10487;53.320;8.672;2022-07-15T06:39:56;101882.81;;;21.15;44.79
20656;BME280;10487;53.320;8.672;2022-07-15T06:42:43;101887.19;;;21.16;44.76
20656;BME280;10487;53.320;8.672;2022-07-15T06:45:30;101882.56;;;21.18;44.62
20656;BME280;10487;53.320;8.672;2022-07-15T06:48:18;101891.38;;;21.20;44.68
20656;BME280;10487;53.320;8.672;2022-07-15T06:51:05;101880.72;;;21.19;44.50
20656;BME280;10487;53.320;8.672;2022-07-15T06:53:52;101891.75;;;21.16;44.64
20656;BME280;10487;53.320;8.672;2022-07-15T06:56:39;101888.19;;;21.15;44.54
20656;BME280;10487;53.320;8.672;2022-07-15T06:59:27;101881.31;;;21.11;44.54
20656;BME280;10487;53.320;8.672;2022-07-15T07:02:14;101889.53;;;21.10;44.52
20656;BME280;10487;53.320;8.672;2022-07-15T07:05:01;101881.44;;;21.10;44.48
20656;BME280;10487;53.320;8.672;2022-07-15T07:07:48;101885.97;;;21.09;44.50
20656;BME280;10487;53.320;8.672;2022-07-15T07:10:35;101888.19;;;21.15;44.58
20656;BME280;10487;53.320;8.672;2022-07-15T07:13:22;101897.84;;;21.18;44.53
20656;BME280;10487;53.320;8.672;2022-07-15T07:16:10;101892.34;;;21.19;44.59
20656;BME280;10487;53.320;8.672;2022-07-15T07:18:58;101894.94;;;21.21;44.65
20656;BME280;10487;53.320;8.672;2022-07-15T07:21:46;101904.59;;;21.23;44.31
20656;BME280;10487;53.320;8.672;2022-07-15T07:24:33;101901.91;;;21.23;44.34
20656;BME280;10487;53.320;8.672;2022-07-15T07:27:20;101911.09;;;21.21;44.49
20656;BME280;10487;53.320;8.672;2022-07-15T07:30:08;101905.94;;;21.18;44.49
20656;BME280;10487;53.320;8.672;2022-07-15T07:32:55;101888.19;;;21.15;44.36
20656;BME280;10487;53.320;8.672;2022-07-15T07:35:42;101893.94;;;21.11;44.54
20656;BME280;10487;53.320;8.672;2022-07-15T07:38:30;101892.94;;;21.12;44.42
20656;BME280;10487;53.320;8.672;2022-07-15T07:41:18;101891.97;;;21.13;44.36
20656;BME280;10487;53.320;8.672;2022-07-15T07:44:06;101897.38;;;21.13;44.47
20656;BME280;10487;53.320;8.672;2022-07-15T07:46:53;101883.66;;;21.16;44.34
20656;BME280;10487;53.320;8.672;2022-07-15T07:49:40;101887.81;;;21.20;44.42
20656;BME280;10487;53.320;8.672;2022-07-15T07:52:27;101881.34;;;21.22;44.35
20656;BME280;10487;53.320;8.672;2022-07-15T07:55:14;101879.25;;;21.26;44.60
20656;BME280;10487;53.320;8.672;2022-07-15T07:58:02;101882.69;;;21.28;44.51
20656;BME280;10487;53.320;8.672;2022-07-15T08:00:49;101878.88;;;21.31;44.46
20656;BME280;10487;53.320;8.672;2022-07-15T08:03:38;101878.75;;;21.32;44.36
20656;BME280;10487;53.320;8.672;2022-07-15T08:06:25;101877.50;;;21.36;44.58
20656;BME280;10487;53.320;8.672;2022-07-15T08:09:12;101886.09;;;21.41;44.52
20656;BME280;10487;53.320;8.672;2022-07-15T08:11:59;101883.88;;;21.46;44.55
20656;BME280;10487;53.320;8.672;2022-07-15T08:14:46;101878.25;;;21.49;44.56
20656;BME280;10487;53.320;8.672;2022-07-15T08:17:34;101894.19;;;21.52;44.46
20656;BME280;10487;53.320;8.672;2022-07-15T08:20:21;101888.53;;;21.55;44.45
20656;BME280;10487;53.320;8.672;2022-07-15T08:23:08;101882.78;;;21.60;44.57
20656;BME280;10487;53.320;8.672;2022-07-15T08:25:55;101879.69;;;21.64;44.60
20656;BME280;10487;53.320;8.672;2022-07-15T08:28:42;101880.31;;;21.68;44.47
20656;BME280;10487;53.320;8.672;2022-07-15T08:31:49;101882.50;;;21.74;44.20
20656;BME280;10487;53.320;8.672;2022-07-15T08:34:36;101878.22;;;21.82;44.37
20656;BME280;10487;53.320;8.672;2022-07-15T08:37:27;101870.25;;;21.92;44.27
20656;BME280;10487;53.320;8.672;2022-07-15T08:40:14;101869.72;;;21.98;44.31
20656;BME280;10487;53.320;8.672;2022-07-15T08:43:02;101879.03;;;22.05;44.45
20656;BME280;10487;53.320;8.672;2022-07-15T08:45:52;101869.56;;;22.11;44.32
20656;BME280;10487;53.320;8.672;2022-07-15T08:48:43;101877.00;;;22.18;44.27
20656;BME280;10487;53.320;8.672;2022-07-15T08:51:36;101886.19;;;22.27;44.54
20656;BME280;10487;53.320;8.672;2022-07-15T08:54:27;101881.09;;;22.33;44.48
20656;BME280;10487;53.320;8.672;2022-07-15T08:57:15;101886.97;;;22.38;44.31
20656;BME280;10487;53.320;8.672;2022-07-15T09:00:06;101889.16;;;22.44;44.25
20656;BME280;10487;53.320;8.672;2022-07-15T09:02:59;101883.38;;;22.49;44.15
20656;BME280;10487;53.320;8.672;2022-07-15T09:05:47;101892.91;;;22.53;44.05
20656;BME280;10487;53.320;8.672;2022-07-15T09:08:34;101876.47;;;22.56;44.04
20656;BME280;10487;53.320;8.672;2022-07-15T09:11:27;101892.91;;;22.64;44.22
20656;BME280;10487;53.320;8.672;2022-07-15T09:14:17;101894.22;;;22.70;44.42
20656;BME280;10487;53.320;8.672;2022-07-15T09:20:09;101893.56;;;22.77;44.25
20656;BME280;10487;53.320;8.672;2022-07-15T09:22:59;101894.53;;;22.76;44.07
20656;BME280;10487;53.320;8.672;2022-07-15T09:25:48;101896.13;;;22.79;44.15
20656;BME280;10487;53.320;8.672;2022-07-15T09:28:38;101894.84;;;22.83;44.19
20656;BME280;10487;53.320;8.672;2022-07-15T09:31:33;101894.59;;;22.86;44.04
20656;BME280;10487;53.320;8.672;2022-07-15T09:37:58;101901.84;;;22.85;43.93
20656;BME280;10487;53.320;8.672;2022-07-15T09:40:48;101905.66;;;22.83;43.76
20656;BME280;10487;53.320;8.672;2022-07-15T09:43:47;101910.22;;;22.82;44.02
20656;BME280;10487;53.320;8.672;2022-07-15T09:49:32;101914.41;;;22.75;44.04
20656;BME280;10487;53.320;8.672;2022-07-15T09:52:20;101919.94;;;22.74;43.75
20656;BME280;10487;53.320;8.672;2022-07-15T09:55:07;101925.50;;;22.72;43.61
20656;BME280;10487;53.320;8.672;2022-07-15T09:57:54;101921.06;;;22.71;43.88
20656;BME280;10487;53.320;8.672;2022-07-15T10:00:41;101926.22;;;22.74;43.72
20656;BME280;10487;53.320;8.672;2022-07-15T10:03:29;101921.53;;;22.76;43.97
20656;BME280;10487;53.320;8.672;2022-07-15T10:06:19;101931.22;;;22.79;44.01
20656;BME280;10487;53.320;8.672;2022-07-15T10:09:07;101928.38;;;22.80;43.82
20656;BME280;10487;53.320;8.672;2022-07-15T10:12:07;101928.97;;;22.84;44.12
20656;BME280;10487;53.320;8.672;2022-07-15T10:15:20;101925.88;;;22.88;44.08
20656;BME280;10487;53.320;8.672;2022-07-15T10:18:19;101931.59;;;22.95;44.04
20656;BME280;10487;53.320;8.672;2022-07-15T10:24:35;101915.19;;;23.07;44.09
20656;BME280;10487;53.320;8.672;2022-07-15T10:28:18;101919.19;;;23.13;44.02
20656;BME280;10487;53.320;8.672;2022-07-15T10:30:45;101931.59;;;23.15;43.91
20656;BME280;10487;53.320;8.672;2022-07-15T10:33:32;101914.13;;;23.19;43.86
20656;BME280;10487;53.320;8.672;2022-07-15T10:36:19;101917.00;;;23.28;43.78
20656;BME280;10487;53.320;8.672;2022-07-15T10:39:06;101914.50;;;23.36;43.76
20656;BME280;10487;53.320;8.672;2022-07-15T10:42:03;101917.53;;;23.42;43.71
20656;BME280;10487;53.320;8.672;2022-07-15T10:47:46;101917.44;;;23.53;44.00
20656;BME280;10487;53.320;8.672;2022-07-15T10:50:40;101908.66;;;23.61;43.71
20656;BME280;10487;53.320;8.672;2022-07-15T10:53:27;101910.66;;;23.68;44.06
20656;BME280;10487;53.320;8.672;2022-07-15T10:56:33;101910.69;;;23.78;44.03
20656;BME280;10487;53.320;8.672;2022-07-15T10:59:23;101905.88;;;23.81;43.96
20656;BME280;10487;53.320;8.672;2022-07-15T11:02:13;101906.00;;;23.90;43.94
20656;BME280;10487;53.320;8.672;2022-07-15T11:05:17;101903.31;;;23.99;43.58
20656;BME280;10487;53.320;8.672;2022-07-15T11:14:39;101895.72;;;24.23;43.52
20656;BME280;10487;53.320;8.672;2022-07-15T11:23:03;101882.75;;;24.56;43.65
20656;BME280;10487;53.320;8.672;2022-07-15T11:25:50;101882.44;;;24.68;43.58
20656;BME280;10487;53.320;8.672;2022-07-15T11:28:37;101888.28;;;24.83;43.76
20656;BME280;10487;53.320;8.672;2022-07-15T11:31:24;101878.97;;;24.95;43.66
20656;BME280;10487;53.320;8.672;2022-07-15T11:34:13;101889.22;;;25.01;43.61
20656;BME280;10487;53.320;8.672;2022-07-15T11:37:00;101878.25;;;25.02;43.59
20656;BME280;10487;53.320;8.672;2022-07-15T11:39:50;101873.09;;;25.09;43.23
20656;BME280;10487;53.320;8.672;2022-07-15T11:42:37;101875.22;;;25.15;43.34
20656;BME280;10487;53.320;8.672;2022-07-15T11:45:43;101876.44;;;25.21;43.48
20656;BME280;10487;53.320;8.672;2022-07-15T11:48:35;101872.47;;;25.25;43.11
20656;BME280;10487;53.320;8.672;2022-07-15T11:51:28;101873.84;;;25.29;43.03
20656;BME280;10487;53.320;8.672;2022-07-15T11:54:17;101862.28;;;25.36;43.00
20656;BME280;10487;53.320;8.672;2022-07-15T11:57:07;101858.09;;;25.51;43.30
20656;BME280;10487;53.320;8.672;2022-07-15T11:59:57;101861.16;;;25.66;42.97
20656;BME280;10487;53.320;8.672;2022-07-15T12:02:45;101869.69;;;25.71;43.14
20656;BME280;10487;53.320;8.672;2022-07-15T12:05:32;101856.97;;;25.71;42.89
20656;BME280;10487;53.320;8.672;2022-07-15T12:08:32;101856.28;;;25.69;42.75
20656;BME280;10487;53.320;8.672;2022-07-15T12:11:28;101857.56;;;25.65;42.64
20656;BME280;10487;53.320;8.672;2022-07-15T12:14:21;101858.91;;;25.61;42.48
20656;BME280;10487;53.320;8.672;2022-07-15T12:17:08;101862.94;;;25.57;42.66
20656;BME280;10487;53.320;8.672;2022-07-15T12:19:56;101864.91;;;25.55;42.49
20656;BME280;10487;53.320;8.672;2022-07-15T12:23:11;101859.66;;;25.54;42.46
20656;BME280;10487;53.320;8.672;2022-07-15T12:26:08;101864.09;;;25.55;42.34
20656;BME280;10487;53.320;8.672;2022-07-15T12:28:57;101872.63;;;25.50;42.25
20656;BME280;10487;53.320;8.672;2022-07-15T12:32:02;101863.81;;;25.48;42.27
20656;BME280;10487;53.320;8.672;2022-07-15T12:34:58;101868.69;;;25.45;42.13
20656;BME280;10487;53.320;8.672;2022-07-15T12:37:48;101869.13;;;25.40;42.53
20656;BME280;10487;53.320;8.672;2022-07-15T12:40:36;101870.13;;;25.39;42.25
20656;BME280;10487;53.320;8.672;2022-07-15T12:43:56;101879.09;;;25.40;42.27
20656;BME280;10487;53.320;8.672;2022-07-15T12:49:50;101869.03;;;25.59;42.31
20656;BME280;10487;53.320;8.672;2022-07-15T12:52:39;101873.94;;;25.73;42.34
20656;BME280;10487;53.320;8.672;2022-07-15T12:55:29;101871.16;;;25.83;42.36
20656;BME280;10487;53.320;8.672;2022-07-15T12:58:23;101870.88;;;25.86;42.14
20656;BME280;10487;53.320;8.672;2022-07-15T13:01:13;101886.75;;;25.81;41.99
20656;BME280;10487;53.320;8.672;2022-07-15T13:04:01;101888.06;;;25.77;41.98
20656;BME280;10487;53.320;8.672;2022-07-15T13:06:48;101891.06;;;25.74;41.96
20656;BME280;10487;53.320;8.672;2022-07-15T13:09:35;101893.97;;;25.73;41.99
20656;BME280;10487;53.320;8.672;2022-07-15T13:12:22;101893.41;;;25.69;41.72
20656;BME280;10487;53.320;8.672;2022-07-15T13:15:10;101890.13;;;25.65;42.05
20656;BME280;10487;53.320;8.672;2022-07-15T13:17:57;101884.69;;;25.65;41.84
20656;BME280;10487;53.320;8.672;2022-07-15T13:20:45;101885.09;;;25.70;41.90
20656;BME280;10487;53.320;8.672;2022-07-15T13:23:33;101875.03;;;25.81;42.00
20656;BME280;10487;53.320;8.672;2022-07-15T13:26:20;101888.69;;;25.89;42.01
20656;BME280;10487;53.320;8.672;2022-07-15T13:29:07;101881.94;;;25.93;42.19
20656;BME280;10487;53.320;8.672;2022-07-15T13:31:55;101877.94;;;25.97;42.08
20656;BME280;10487;53.320;8.672;2022-07-15T13:34:42;101886.31;;;26.03;41.95
20656;BME280;10487;53.320;8.672;2022-07-15T13:37:34;101879.88;;;26.04;41.89
20656;BME280;10487;53.320;8.672;2022-07-15T13:40:21;101880.19;;;26.01;41.75
20656;BME280;10487;53.320;8.672;2022-07-15T13:43:08;101886.09;;;25.97;41.47
20656;BME280;10487;53.320;8.672;2022-07-15T13:45:55;101889.25;;;25.92;41.75
20656;BME280;10487;53.320;8.672;2022-07-15T13:48:43;101888.69;;;25.89;41.80
20656;BME280;10487;53.320;8.672;2022-07-15T13:51:30;101888.13;;;25.85;41.28
20656;BME280;10487;53.320;8.672;2022-07-15T13:54:17;101890.31;;;25.82;41.71
20656;BME280;10487;53.320;8.672;2022-07-15T13:57:04;101896.03;;;25.79;41.48
20656;BME280;10487;53.320;8.672;2022-07-15T13:59:51;101896.34;;;25.76;41.49
20656;BME280;10487;53.320;8.672;2022-07-15T14:02:38;101892.22;;;25.71;41.43
20656;BME280;10487;53.320;8.672;2022-07-15T14:05:26;101892.22;;;25.71;41.71
20656;BME280;10487;53.320;8.672;2022-07-15T14:08:13;101895.81;;;25.72;41.29
20656;BME280;10487;53.320;8.672;2022-07-15T14:11:00;101885.09;;;25.70;41.45
20656;BME280;10487;53.320;8.672;2022-07-15T14:13:47;101894.09;;;25.71;41.14
20656;BME280;10487;53.320;8.672;2022-07-15T14:16:34;101898.66;;;25.70;41.39
20656;BME280;10487;53.320;8.672;2022-07-15T14:19:22;101894.38;;;25.68;41.59
20656;BME280;10487;53.320;8.672;2022-07-15T14:22:10;101896.81;;;25.71;41.37
20656;BME280;10487;53.320;8.672;2022-07-15T14:24:58;101896.03;;;25.79;41.37
20656;BME280;10487;53.320;8.672;2022-07-15T14:27:46;101903.88;;;25.82;41.44
20656;BME280;10487;53.320;8.672;2022-07-15T14:30:33;101900.31;;;25.81;41.15
20656;BME280;10487;53.320;8.672;2022-07-15T14:33:20;101890.63;;;25.79;41.35
20656;BME280;10487;53.320;8.672;2022-07-15T14:36:08;101890.22;;;25.73;41.38
20656;BME280;10487;53.320;8.672;2022-07-15T14:38:58;101900.84;;;25.67;41.23
20656;BME280;10487;53.320;8.672;2022-07-15T14:41:45;101892.28;;;25.62;41.20
20656;BME280;10487;53.320;8.672;2022-07-15T14:44:32;101904.59;;;25.56;41.11
20656;BME280;10487;53.320;8.672;2022-07-15T14:47:19;101897.91;;;25.51;41.22
20656;BME280;10487;53.320;8.672;2022-07-15T14:50:06;101892.94;;;25.46;41.33
20656;BME280;10487;53.320;8.672;2022-07-15T14:52:53;101898.94;;;25.40;41.05
20656;BME280;10487;53.320;8.672;2022-07-15T14:55:41;101901.53;;;25.32;41.24
20656;BME280;10487;53.320;8.672;2022-07-15T14:58:28;101895.00;;;25.25;40.89
20656;BME280;10487;53.320;8.672;2022-07-15T15:01:15;101891.88;;;25.20;40.94
20656;BME280;10487;53.320;8.672;2022-07-15T15:04:02;101887.91;;;25.15;41.15
20656;BME280;10487;53.320;8.672;2022-07-15T15:06:50;101895.63;;;25.09;41.10
20656;BME280;10487;53.320;8.672;2022-07-15T15:09:37;101888.94;;;25.04;41.24
20656;BME280;10487;53.320;8.672;2022-07-15T15:12:24;101888.50;;;24.99;40.83